createdAt,value
2023-03-01T00:03:09.572Z,21.17
2023-03-01T00:08:14.217Z,22.10
2023-03-01T00:13:21.504Z,19.75
2023-03-01T00:18:26.467Z,20.77
2023-03-01T00:23:31.835Z,21.00
2023-03-01T00:28:39.159Z,19.85
2023-03-01T00:33:43.941Z,22.83
2023-03-01T00:38:49.372Z,22.10
2023-03-01T00:43:57.016Z,23.58
2023-03-01T00:49:03.358Z,21.27
2023-03-01T00:54:08.124Z,21.50
2023-03-01T00:59:15.416Z,22.60
2023-03-01T01:04:20.093Z,27.50
2023-03-01T01:09:24.729Z,22.42
2023-03-01T01:14:32.009Z,21.60
2023-03-01T01:19:36.727Z,21.88
2023-03-01T01:24:41.586Z,21.90
2023-03-01T01:29:48.842Z,23.92
2023-03-01T01:34:53.542Z,21.92
2023-03-01T01:39:58.190Z,20.65
2023-03-01T01:45:17.796Z,22.40
2023-03-01T01:50:25.544Z,21.38
2023-03-01T01:55:31.456Z,22.70
2023-03-01T02:00:36.117Z,21.60
2023-03-01T02:05:51.576Z,20.77
2023-03-01T02:11:00.864Z,21.83
2023-03-01T02:16:07.476Z,21.92
2023-03-01T02:21:30.470Z,24.17
2023-03-01T02:26:40.378Z,21.13
2023-03-01T02:31:47.871Z,22.40
2023-03-01T02:36:54.422Z,23.63
2023-03-01T02:42:00.171Z,25.88
2023-03-01T02:47:07.886Z,22.50
2023-03-01T02:52:21.492Z,26.83
2023-03-01T02:57:28.529Z,21.63
2023-03-01T03:02:39.792Z,21.88
2023-03-01T03:07:45.856Z,23.48
2023-03-01T03:12:52.983Z,22.42
2023-03-01T03:18:00.700Z,21.63
2023-03-01T03:23:05.361Z,24.58
2023-03-01T03:28:13.013Z,23.50
2023-03-01T03:33:20.326Z,22.08
2023-03-01T03:38:27.207Z,23.35
2023-03-01T03:43:32.330Z,22.15
2023-03-01T03:48:40.604Z,21.83
2023-03-01T03:53:45.870Z,25.85
2023-03-01T03:58:50.537Z,24.73
2023-03-01T04:04:05.387Z,23.08
2023-03-01T04:09:10.988Z,25.60
2023-03-01T04:14:18.548Z,26.40
2023-03-01T04:19:25.945Z,28.13
2023-03-01T04:24:30.733Z,26.88
2023-03-01T04:29:35.337Z,25.55
2023-03-01T04:34:42.607Z,26.33
2023-03-01T04:39:48.543Z,26.15
2023-03-01T04:44:53.359Z,25.63
2023-03-01T04:50:00.768Z,23.67
2023-03-01T04:55:05.485Z,24.85
2023-03-01T05:00:21.180Z,24.10
2023-03-01T05:05:29.509Z,22.25
2023-03-01T05:10:36.425Z,22.77
2023-03-01T05:15:41.137Z,23.17
2023-03-01T05:20:48.705Z,25.77
2023-03-01T05:25:53.429Z,38.65
2023-03-01T05:30:58.191Z,47.90
2023-03-01T05:36:06.606Z,28.33
2023-03-01T05:41:20.870Z,25.52
2023-03-01T05:46:25.759Z,22.45
2023-03-01T05:51:33.643Z,21.30
2023-03-01T05:56:38.732Z,20.88
2023-03-01T06:01:43.681Z,21.48
2023-03-01T06:06:50.941Z,19.77
2023-03-01T06:11:55.709Z,21.45
2023-03-01T06:17:00.483Z,20.75
2023-03-01T06:22:08.185Z,24.92
2023-03-01T06:27:13.065Z,22.23
2023-03-01T06:32:18.971Z,22.45
2023-03-01T06:37:26.296Z,24.10
2023-03-01T06:42:30.967Z,25.40
2023-03-01T06:47:35.603Z,26.60
2023-03-01T06:52:42.945Z,26.95
2023-03-01T06:57:47.709Z,29.75
2023-03-01T07:02:52.599Z,22.38
2023-03-01T07:08:00.205Z,26.25
2023-03-01T07:13:04.918Z,21.67
2023-03-01T07:18:09.618Z,25.15
2023-03-01T07:23:16.977Z,25.60
2023-03-01T07:28:21.846Z,27.17
2023-03-01T07:33:26.525Z,25.85
2023-03-01T07:38:34.217Z,22.10
2023-03-01T07:43:39.030Z,21.60
2023-03-01T07:48:43.818Z,20.30
2023-03-01T07:53:52.365Z,22.13
2023-03-01T07:58:57.169Z,22.90
2023-03-01T08:04:03.016Z,22.98
2023-03-01T08:09:10.619Z,25.02
2023-03-01T08:14:15.434Z,25.77
2023-03-01T08:19:20.705Z,28.05
2023-03-01T08:24:28.163Z,25.95
2023-03-01T08:29:34.534Z,23.40
2023-03-01T08:34:40.483Z,20.98
2023-03-01T08:39:49.101Z,21.30
2023-03-01T08:44:53.879Z,20.75
2023-03-01T08:49:58.674Z,21.02
2023-03-01T08:55:06.290Z,22.35
2023-03-01T09:00:13.169Z,19.23
2023-03-01T09:05:20.237Z,21.95
2023-03-01T09:10:27.663Z,22.15
2023-03-01T09:15:32.699Z,20.98
2023-03-01T09:20:37.410Z,19.10
2023-03-01T09:25:44.861Z,17.60
2023-03-01T09:30:49.574Z,29.70
2023-03-01T09:35:54.349Z,27.95
2023-03-01T09:41:02.040Z,100.90
2023-03-01T09:46:08.799Z,33.60
2023-03-01T09:51:20.740Z,17.95
2023-03-01T09:56:32.246Z,19.17
2023-03-01T10:01:39.601Z,20.17
2023-03-01T10:06:48.388Z,19.85
2023-03-01T10:11:58.117Z,54.05
2023-03-01T10:17:05.757Z,23.77
2023-03-01T10:22:15.481Z,23.25
2023-03-01T10:27:26.361Z,27.80
2023-03-01T10:32:31.393Z,22.88
2023-03-01T10:37:36.070Z,30.30
2023-03-01T10:42:44.242Z,21.23
2023-03-01T10:47:49.136Z,18.17
2023-03-01T10:53:02.765Z,18.60
2023-03-01T10:58:20.405Z,18.45
2023-03-01T11:03:26.860Z,21.92
2023-03-01T11:08:35.942Z,22.58
2023-03-01T11:13:50.722Z,30.70
2023-03-01T11:19:00.585Z,15.70
2023-03-01T11:24:06.029Z,12.85
2023-03-01T11:29:16.518Z,12.00
2023-03-01T11:34:23.915Z,13.20
2023-03-01T11:39:32.177Z,13.73
2023-03-01T11:44:41.104Z,23.58
2023-03-01T11:50:03.280Z,19.15
2023-03-01T11:55:21.817Z,12.95
2023-03-01T12:00:38.247Z,11.73
2023-03-01T12:05:52.811Z,33.67
2023-03-01T12:11:01.148Z,35.55
2023-03-01T12:16:23.049Z,10.38
2023-03-01T12:21:43.553Z,10.48
2023-03-01T12:26:57.302Z,11.30
2023-03-01T12:32:13.585Z,12.23
2023-03-01T12:37:33.568Z,11.18
2023-03-01T12:42:48.733Z,10.55
2023-03-01T12:48:02.737Z,10.60
2023-03-01T12:53:07.560Z,9.77
2023-03-01T12:58:22.418Z,10.77
2023-03-01T13:03:34.399Z,11.40
2023-03-01T13:09:01.586Z,11.30
2023-03-01T13:14:21.284Z,10.90
2023-03-01T13:19:30.375Z,10.20
2023-03-01T13:24:39.950Z,12.05
2023-03-01T13:29:48.639Z,10.52
2023-03-01T13:34:59.853Z,10.50
2023-03-01T13:40:08.381Z,10.05
2023-03-01T13:45:36.810Z,10.43
2023-03-01T13:50:49.202Z,9.93
2023-03-01T13:55:57.045Z,17.42
2023-03-01T14:01:03.830Z,8.02
2023-03-01T14:06:15.182Z,10.98
2023-03-01T14:11:34.818Z,15.55
2023-03-01T14:16:44.820Z,15.13
2023-03-01T14:22:04.092Z,22.35
2023-03-01T14:27:13.623Z,13.93
2023-03-01T14:32:23.070Z,10.45
2023-03-01T14:37:32.467Z,10.97
2023-03-01T14:42:38.704Z,10.30
2023-03-01T14:47:44.496Z,8.98
2023-03-01T14:52:54.040Z,8.73
2023-03-01T14:58:03.436Z,8.23
2023-03-01T15:03:14.563Z,11.00
2023-03-01T15:08:24.601Z,15.18
2023-03-01T15:13:30.368Z,16.88
2023-03-01T15:18:35.305Z,17.90
2023-03-01T15:23:44.131Z,16.95
2023-03-01T15:28:53.615Z,16.50
2023-03-01T15:34:11.647Z,18.13
2023-03-01T15:39:38.573Z,16.63
2023-03-01T15:44:46.347Z,14.20
2023-03-01T15:49:55.255Z,13.68
2023-03-01T15:55:05.237Z,13.10
2023-03-01T16:00:14.632Z,13.47
2023-03-01T16:05:22.395Z,13.48
2023-03-01T16:10:29.752Z,15.30
2023-03-01T16:15:35.678Z,14.45
2023-03-01T16:20:40.538Z,14.73
2023-03-01T16:25:48.011Z,14.75
2023-03-01T16:30:52.802Z,15.57
2023-03-01T16:35:57.913Z,17.20
2023-03-01T16:41:05.607Z,17.45
2023-03-01T16:46:14.167Z,17.73
2023-03-01T16:51:19.245Z,19.20
2023-03-01T16:56:26.701Z,17.88
2023-03-01T17:01:38.613Z,17.52
2023-03-01T17:06:43.666Z,18.33
2023-03-01T17:11:51.181Z,19.80
2023-03-01T17:16:56.232Z,21.73
2023-03-01T17:22:01.397Z,23.80
2023-03-01T17:27:08.797Z,24.55
2023-03-01T17:32:13.770Z,27.38
2023-03-01T17:37:18.908Z,70.88
2023-03-01T17:42:26.310Z,62.80
2023-03-01T17:47:31.030Z,103.68
2023-03-01T17:52:35.748Z,49.78
2023-03-01T17:57:44.693Z,50.38
2023-03-01T18:02:49.610Z,63.03
2023-03-01T18:07:54.388Z,34.40
2023-03-01T18:13:01.687Z,31.05
2023-03-01T18:18:06.706Z,30.33
2023-03-01T18:23:11.509Z,55.20
2023-03-01T18:28:22.279Z,64.20
2023-03-01T18:33:29.534Z,65.55
2023-03-01T18:38:34.412Z,50.17
2023-03-01T18:43:42.547Z,59.95
2023-03-01T18:48:50.238Z,33.22
2023-03-01T18:53:55.203Z,42.17
2023-03-01T18:59:04.296Z,77.13
2023-03-01T19:04:11.139Z,75.95
2023-03-01T19:09:16.267Z,49.47
2023-03-01T19:14:23.743Z,21.45
2023-03-01T19:19:28.575Z,26.55
2023-03-01T19:24:33.669Z,24.42
2023-03-01T19:29:41.045Z,31.63
2023-03-01T19:34:46.930Z,31.90
2023-03-01T19:39:51.675Z,28.20
2023-03-01T19:44:59.983Z,22.50
2023-03-01T19:50:04.939Z,24.77
2023-03-01T19:55:10.390Z,19.70
2023-03-01T20:00:18.652Z,12.00
2023-03-01T20:05:23.411Z,13.05
2023-03-01T20:10:29.790Z,12.73
2023-03-01T20:15:37.699Z,15.32
2023-03-01T20:20:42.663Z,17.00
2023-03-01T20:25:48.740Z,18.05
2023-03-01T20:30:56.628Z,21.52
2023-03-01T20:36:01.570Z,16.60
2023-03-01T20:41:07.221Z,16.55
2023-03-01T20:46:17.937Z,15.68
2023-03-01T20:51:23.227Z,14.05
2023-03-01T20:56:28.611Z,15.10
2023-03-01T21:01:36.093Z,14.73
2023-03-01T21:06:43.125Z,13.68
2023-03-01T21:11:47.922Z,12.95
2023-03-01T21:16:56.222Z,15.48
2023-03-01T21:22:03.951Z,14.70
2023-03-01T21:27:09.881Z,13.85
2023-03-01T21:32:17.538Z,15.35
2023-03-01T21:37:22.690Z,15.55
2023-03-01T21:42:27.386Z,21.38
2023-03-01T21:47:36.411Z,26.98
2023-03-01T21:52:41.174Z,33.20
2023-03-01T21:57:46.361Z,37.25
2023-03-01T22:02:58.581Z,63.08
2023-03-01T22:08:03.637Z,61.22
2023-03-01T22:13:10.371Z,33.35
2023-03-01T22:18:18.054Z,26.75
2023-03-01T22:23:22.847Z,25.45
2023-03-01T22:28:27.946Z,21.58
2023-03-01T22:33:35.322Z,17.98
2023-03-01T22:38:40.105Z,15.73
2023-03-01T22:43:44.790Z,13.07
2023-03-01T22:48:52.189Z,14.60
2023-03-01T22:53:57.152Z,14.93
2023-03-01T22:59:02.784Z,16.17
2023-03-01T23:04:10.207Z,18.02
2023-03-01T23:09:14.863Z,16.10
2023-03-01T23:14:19.704Z,25.13
2023-03-01T23:19:27.041Z,19.27
2023-03-01T23:24:34.188Z,11.63
2023-03-01T23:29:38.946Z,12.65
2023-03-01T23:34:46.444Z,11.65
2023-03-01T23:39:51.433Z,16.85
2023-03-01T23:44:56.116Z,12.75
2023-03-01T23:50:03.477Z,12.32
2023-03-01T23:55:10.232Z,12.45
